Ashland, Illinois
Current Conditions -  °F | °C
As of 9:55 PM on Friday 24 Oct 2014 (Local Time) from KIJX Reporting Station
Clear Clear  
Wind Chill: 64°   Ceiling: Unl
Heat Index: 64°   Visibility: 10mi
Dew Point: 50°   Wind: 6mph
Humidity: 62%   Direction: 200°SSW
Pressure: 29.97"   Gusts: NA
Location:  39.89°N, 90.01°W
Report Text: KIJX 250255Z AUTO 20005KT 10SM CLR 18/10 A2997 RMK AO2 T01750102
Loading
Personal Weather Stations






























Interactive Weather Map
Tropical Storm Tracking
New forecast layout! Learn more

10-Day Weather Forecast

Advertisements
Track Severe Weather on mobile